Hopewell, Missouri
Current Conditions -  °F | °C
As of 2:55 AM on Monday 22 Dec 2014 (Local Time) from KFAM Reporting Station
Overcast Overcast  
Wind Chill: 36°   Ceiling: 3600
Heat Index: 41°   Visibility: 10mi
Dew Point: 32°   Wind: 8mph
Humidity: 70%   Direction: 90°E
Pressure: 29.86"   Gusts: NA
Location:  37.9132°N, 90.7°W
Report Text: KFAM 220855Z AUTO 09007KT 10SM BKN036 OVC080 05/00 A2986 RMK AO1 57020
Loading
Personal Weather Stations






























Interactive Weather Map New forecast layout! Learn more

10-Day Weather Forecast

Advertisements
Track Severe Weather on mobile